createdAt,value
2018-01-29T00:01:33.292Z,7.20
2018-01-29T00:04:00.733Z,7.20
2018-01-29T00:06:28.935Z,7.43
2018-01-29T00:08:56.375Z,7.75
2018-01-29T00:11:23.817Z,7.15
2018-01-29T00:13:51.241Z,7.20
2018-01-29T00:16:18.677Z,7.30
2018-01-29T00:18:46.110Z,7.55
2018-01-29T00:21:13.587Z,7.50
2018-01-29T00:23:41.015Z,7.10
2018-01-29T00:26:08.442Z,6.50
2018-01-29T00:28:35.887Z,7.50
2018-01-29T00:31:03.324Z,7.05
2018-01-29T00:33:31.532Z,6.97
2018-01-29T00:35:59.719Z,6.67
2018-01-29T00:38:27.970Z,7.17
2018-01-29T00:40:56.118Z,6.68
2018-01-29T00:43:24.315Z,6.22
2018-01-29T00:45:52.524Z,6.78
2018-01-29T00:48:19.962Z,6.90
2018-01-29T00:50:47.394Z,6.43
2018-01-29T00:53:14.827Z,6.75
2018-01-29T00:55:42.271Z,6.60
2018-01-29T00:58:09.707Z,6.45
2018-01-29T01:00:37.922Z,6.50
2018-01-29T01:03:06.122Z,6.20
2018-01-29T01:05:33.559Z,6.15
2018-01-29T01:08:00.988Z,6.23
2018-01-29T01:10:28.435Z,6.35
2018-01-29T01:12:55.871Z,5.90
2018-01-29T01:15:23.316Z,5.50
2018-01-29T01:17:51.508Z,5.87
2018-01-29T01:20:19.719Z,5.80
2018-01-29T01:22:47.916Z,5.50
2018-01-29T01:25:15.362Z,5.25
2018-01-29T01:27:42.799Z,5.70
2018-01-29T01:30:10.226Z,4.93
2018-01-29T01:32:37.658Z,4.93
2018-01-29T01:35:05.094Z,5.28
2018-01-29T01:37:32.525Z,5.22
2018-01-29T01:39:59.954Z,4.80
2018-01-29T01:42:27.396Z,5.00
2018-01-29T01:44:54.818Z,4.80
2018-01-29T01:47:23.035Z,4.55
2018-01-29T01:49:50.463Z,4.30
2018-01-29T01:52:17.898Z,4.90
2018-01-29T01:54:45.322Z,4.87
2018-01-29T01:57:12.768Z,4.10
2018-01-29T01:59:40.196Z,4.37
2018-01-29T02:02:07.638Z,4.93
2018-01-29T02:04:35.067Z,4.57
2018-01-29T02:07:02.498Z,4.45
2018-01-29T02:09:29.931Z,4.50
2018-01-29T02:11:57.385Z,5.10
2018-01-29T02:14:24.816Z,4.87
2018-01-29T02:16:53.019Z,4.82
2018-01-29T02:19:20.443Z,4.60
2018-01-29T02:21:47.890Z,5.40
2018-01-29T02:24:15.319Z,4.80
2018-01-29T02:26:42.759Z,5.10
2018-01-29T02:29:10.191Z,5.07
2018-01-29T02:31:37.630Z,5.05
2018-01-29T02:34:05.066Z,5.20
2018-01-29T02:36:32.498Z,5.47
2018-01-29T02:38:59.981Z,5.50
2018-01-29T02:41:27.422Z,5.57
2018-01-29T02:43:54.851Z,4.90
2018-01-29T02:46:22.296Z,5.73
2018-01-29T02:48:50.483Z,5.20
2018-01-29T02:51:18.690Z,5.72
2018-01-29T02:53:46.136Z,6.07
2018-01-29T02:56:13.580Z,5.80
2018-01-29T02:58:40.999Z,5.80
2018-01-29T03:01:09.208Z,5.80
2018-01-29T03:03:37.412Z,5.95
2018-01-29T03:06:05.617Z,5.82
2018-01-29T03:08:33.816Z,6.60
2018-01-29T03:11:01.273Z,6.10
2018-01-29T03:13:28.704Z,5.85
2018-01-29T03:15:56.135Z,5.90
2018-01-29T03:18:23.562Z,6.22
2018-01-29T03:20:51.000Z,6.97
2018-01-29T03:23:18.436Z,6.45
2018-01-29T03:25:45.876Z,6.60
2018-01-29T03:28:14.077Z,7.20
2018-01-29T03:30:42.291Z,6.90
2018-01-29T03:33:09.724Z,7.32
2018-01-29T03:35:37.158Z,7.47
2018-01-29T03:38:04.592Z,7.07
2018-01-29T03:40:32.036Z,6.82
2018-01-29T03:42:59.478Z,7.00
2018-01-29T03:45:27.666Z,7.30
2018-01-29T03:47:55.871Z,7.62
2018-01-29T03:50:24.070Z,7.80
2018-01-29T03:52:52.283Z,8.27
2018-01-29T03:55:19.710Z,8.07
2018-01-29T03:57:47.154Z,8.32
2018-01-29T04:00:14.583Z,7.80
2018-01-29T04:02:42.015Z,7.93
2018-01-29T04:05:09.454Z,9.13
2018-01-29T04:07:36.895Z,8.63
2018-01-29T04:10:04.327Z,7.67
2018-01-29T04:12:32.580Z,7.40
2018-01-29T04:15:00.015Z,8.30
2018-01-29T04:17:28.214Z,8.02
2018-01-29T04:19:56.415Z,8.27
2018-01-29T04:22:24.620Z,7.90
2018-01-29T04:24:52.055Z,8.30
2018-01-29T04:27:19.490Z,8.40
2018-01-29T04:29:46.924Z,7.80
2018-01-29T04:32:14.368Z,8.60
2018-01-29T04:34:41.802Z,7.32
2018-01-29T04:37:09.999Z,8.10
2018-01-29T04:39:38.194Z,6.97
2018-01-29T04:42:06.399Z,7.60
2018-01-29T04:44:34.600Z,7.18
2018-01-29T04:47:02.799Z,7.37
2018-01-29T04:49:30.994Z,8.15
2018-01-29T04:51:59.204Z,7.68
2018-01-29T04:54:26.648Z,7.70
2018-01-29T04:56:54.090Z,7.97
2018-01-29T04:59:21.520Z,7.47
2018-01-29T05:01:48.972Z,7.60
2018-01-29T05:04:16.403Z,7.97
2018-01-29T05:06:44.612Z,7.50
2018-01-29T05:09:12.039Z,7.43
2018-01-29T05:11:39.479Z,7.07
2018-01-29T05:14:06.916Z,7.60
2018-01-29T05:16:34.347Z,8.10
2018-01-29T05:19:01.790Z,7.70
2018-01-29T05:21:30.005Z,7.75
2018-01-29T05:23:58.206Z,7.90
2018-01-29T05:26:25.652Z,8.35
2018-01-29T05:28:53.084Z,7.70
2018-01-29T05:31:20.531Z,8.20
2018-01-29T05:33:48.745Z,7.32
2018-01-29T05:36:22.791Z,8.02
2018-01-29T05:38:50.233Z,25.33
2018-01-29T05:41:17.686Z,10.75
2018-01-29T05:43:45.120Z,9.10
2018-01-29T05:46:13.328Z,14.73
2018-01-29T05:48:40.799Z,12.35
2018-01-29T05:51:08.241Z,7.50
2018-01-29T05:53:35.688Z,7.53
2018-01-29T05:56:03.122Z,6.87
2018-01-29T05:58:30.564Z,5.40
2018-01-29T06:00:57.996Z,6.30
2018-01-29T06:03:26.200Z,5.57
2018-01-29T06:05:54.397Z,6.23
2018-01-29T06:08:22.599Z,6.03
2018-01-29T06:10:50.031Z,5.80
2018-01-29T06:13:17.464Z,6.90
2018-01-29T06:15:44.895Z,6.83
2018-01-29T06:18:12.326Z,6.87
2018-01-29T06:20:39.764Z,6.43
2018-01-29T06:23:07.204Z,6.60
2018-01-29T06:25:34.631Z,6.33
2018-01-29T06:28:02.097Z,7.73
2018-01-29T06:30:29.499Z,6.60
2018-01-29T06:32:56.937Z,6.40
2018-01-29T06:35:24.363Z,7.07
2018-01-29T06:37:51.799Z,6.37
2018-01-29T06:40:19.230Z,6.30
2018-01-29T06:42:47.488Z,6.33
2018-01-29T06:45:14.920Z,7.10
2018-01-29T06:47:42.350Z,6.90
2018-01-29T06:50:09.779Z,6.60
2018-01-29T06:52:37.988Z,6.60
2018-01-29T06:55:05.420Z,6.73
2018-01-29T06:57:32.864Z,6.53
2018-01-29T07:00:00.291Z,6.37
2018-01-29T07:02:27.724Z,5.20
2018-01-29T07:04:55.165Z,7.10
2018-01-29T07:07:22.596Z,6.30
2018-01-29T07:09:50.039Z,6.07
2018-01-29T07:12:18.230Z,5.33
2018-01-29T07:14:45.662Z,6.23
2018-01-29T07:17:13.096Z,7.30
2018-01-29T07:19:41.304Z,6.60
2018-01-29T07:22:08.736Z,6.97
2018-01-29T07:24:36.176Z,6.50
2018-01-29T07:27:03.602Z,6.40
2018-01-29T07:29:31.035Z,6.07
2018-01-29T07:31:58.463Z,6.03
2018-01-29T07:34:25.908Z,6.70
2018-01-29T07:36:53.331Z,6.00
2018-01-29T07:39:20.772Z,6.27
2018-01-29T07:41:48.208Z,6.80
2018-01-29T07:44:15.649Z,6.70
2018-01-29T07:46:43.089Z,6.17
2018-01-29T07:49:10.536Z,6.07
2018-01-29T07:51:37.969Z,5.03
2018-01-29T07:54:05.415Z,5.77
2018-01-29T07:56:33.617Z,5.60
2018-01-29T07:59:01.828Z,6.00
2018-01-29T08:01:30.029Z,5.70
2018-01-29T08:03:58.233Z,5.57
2018-01-29T08:06:26.489Z,5.07
2018-01-29T08:08:53.928Z,5.43
2018-01-29T08:11:21.365Z,5.20
2018-01-29T08:13:48.865Z,5.27
2018-01-29T08:16:16.288Z,6.00
2018-01-29T08:18:43.729Z,5.57
2018-01-29T08:21:11.192Z,5.10
2018-01-29T08:23:39.401Z,5.10
2018-01-29T08:26:07.608Z,4.43
2018-01-29T08:28:35.812Z,4.57
2018-01-29T08:31:03.249Z,4.33
2018-01-29T08:33:30.690Z,4.17
2018-01-29T08:35:58.124Z,4.30
2018-01-29T08:38:25.569Z,4.50
2018-01-29T08:40:53.773Z,4.93
2018-01-29T08:43:21.212Z,4.67
2018-01-29T08:45:48.649Z,4.40
2018-01-29T08:48:16.095Z,4.57
2018-01-29T08:50:43.532Z,4.20
2018-01-29T08:53:11.745Z,4.20
2018-01-29T08:55:39.945Z,4.17
2018-01-29T08:58:07.380Z,3.93
2018-01-29T09:00:34.824Z,4.60
2018-01-29T09:03:02.296Z,3.97
2018-01-29T09:05:29.740Z,4.90
2018-01-29T09:07:57.177Z,4.83
2018-01-29T09:10:24.620Z,4.07
2018-01-29T09:12:52.825Z,4.97
2018-01-29T09:15:21.036Z,5.90
2018-01-29T09:17:48.472Z,5.23
2018-01-29T09:20:15.917Z,4.17
2018-01-29T09:22:43.360Z,6.30
2018-01-29T09:25:11.572Z,4.03
2018-01-29T09:27:39.004Z,4.10
2018-01-29T09:30:06.988Z,5.50
2018-01-29T09:32:34.420Z,4.77
2018-01-29T09:35:02.634Z,3.80
2018-01-29T09:37:30.065Z,4.93
2018-01-29T09:39:57.508Z,4.17
2018-01-29T09:42:24.945Z,4.33
2018-01-29T09:44:53.160Z,4.00
2018-01-29T09:47:21.360Z,4.57
2018-01-29T09:49:48.804Z,4.20
2018-01-29T09:52:16.240Z,4.83
2018-01-29T09:54:43.698Z,5.20
2018-01-29T09:57:11.889Z,5.90
2018-01-29T09:59:40.096Z,4.53
2018-01-29T10:02:08.297Z,4.70
2018-01-29T10:04:36.504Z,5.13
2018-01-29T10:07:03.935Z,4.97
2018-01-29T10:09:31.376Z,5.40
2018-01-29T10:11:58.803Z,4.17
2018-01-29T10:14:26.236Z,5.20
2018-01-29T10:16:53.683Z,5.40
2018-01-29T10:19:21.118Z,5.95
2018-01-29T10:21:48.552Z,4.97
2018-01-29T10:24:16.004Z,5.70
2018-01-29T10:26:43.448Z,6.10
2018-01-29T10:29:10.904Z,6.25
2018-01-29T10:31:39.104Z,6.47
2018-01-29T10:34:07.307Z,6.40
2018-01-29T10:36:35.502Z,6.20
2018-01-29T10:39:03.709Z,6.03
2018-01-29T10:41:31.904Z,5.57
2018-01-29T10:44:00.115Z,5.10
2018-01-29T10:46:28.312Z,5.68
2018-01-29T10:48:56.511Z,5.28
2018-01-29T10:51:24.711Z,4.80
2018-01-29T10:53:52.167Z,5.75
2018-01-29T10:56:19.639Z,5.50
2018-01-29T10:58:47.036Z,5.80
2018-01-29T11:01:20.228Z,5.83
2018-01-29T11:03:47.651Z,5.77
2018-01-29T11:06:15.104Z,5.20
2018-01-29T11:08:42.540Z,5.20
2018-01-29T11:11:09.989Z,5.70
2018-01-29T11:13:37.422Z,4.95
2018-01-29T11:16:04.871Z,5.68
2018-01-29T11:18:33.079Z,6.15
2018-01-29T11:21:01.325Z,5.53
2018-01-29T11:23:28.760Z,5.60
2018-01-29T11:25:56.199Z,5.10
2018-01-29T11:28:23.652Z,5.40
2018-01-29T11:30:51.095Z,8.10
2018-01-29T11:33:18.522Z,4.90
2018-01-29T11:35:45.972Z,4.90
2018-01-29T11:38:14.176Z,3.97
2018-01-29T11:40:42.375Z,4.40
2018-01-29T11:43:10.570Z,4.33
2018-01-29T11:45:38.784Z,4.30
2018-01-29T11:48:06.975Z,4.77
2018-01-29T11:50:35.185Z,4.67
2018-01-29T11:53:03.396Z,4.47
2018-01-29T11:55:30.823Z,4.90
2018-01-29T11:57:58.258Z,4.23
2018-01-29T12:00:25.696Z,4.70
2018-01-29T12:02:53.157Z,5.07
2018-01-29T12:05:20.601Z,4.57
2018-01-29T12:07:48.030Z,5.00
2018-01-29T12:10:15.476Z,4.93
2018-01-29T12:12:42.903Z,4.83
2018-01-29T12:15:10.348Z,5.07
2018-01-29T12:17:37.784Z,5.40
2018-01-29T12:20:05.230Z,7.03
2018-01-29T12:22:33.437Z,6.13
2018-01-29T12:25:01.638Z,6.17
2018-01-29T12:27:29.831Z,5.10
2018-01-29T12:29:58.031Z,6.33
2018-01-29T12:32:26.227Z,5.30
2018-01-29T12:34:54.427Z,7.20
2018-01-29T12:37:22.624Z,7.30
2018-01-29T12:39:50.059Z,6.13
2018-01-29T12:42:17.491Z,6.33
2018-01-29T12:44:44.932Z,6.13
2018-01-29T12:47:12.365Z,4.73
2018-01-29T12:49:40.562Z,4.30
2018-01-29T12:52:08.760Z,5.67
2018-01-29T12:54:36.963Z,4.30
2018-01-29T12:57:05.166Z,4.53
2018-01-29T12:59:33.371Z,3.90
2018-01-29T13:02:01.571Z,4.10
2018-01-29T13:04:29.783Z,3.87
2018-01-29T13:06:57.996Z,4.20
2018-01-29T13:09:25.423Z,3.90
2018-01-29T13:11:52.864Z,4.43
2018-01-29T13:14:20.314Z,3.87
2018-01-29T13:16:47.760Z,3.97
2018-01-29T13:19:15.200Z,3.30
2018-01-29T13:21:43.408Z,3.60
2018-01-29T13:24:11.598Z,4.20
2018-01-29T13:26:39.805Z,3.67
2018-01-29T13:29:07.238Z,2.73
2018-01-29T13:31:34.679Z,3.60
2018-01-29T13:34:02.111Z,2.90
2018-01-29T13:36:29.546Z,3.13
2018-01-29T13:38:56.979Z,3.13
2018-01-29T13:41:24.420Z,3.57
2018-01-29T13:43:51.851Z,3.00
2018-01-29T13:46:19.287Z,3.43
2018-01-29T13:48:46.710Z,2.33
2018-01-29T13:51:14.146Z,2.50
2018-01-29T13:53:41.575Z,2.77
2018-01-29T13:56:09.007Z,3.03
2018-01-29T13:58:36.435Z,2.80
2018-01-29T14:01:04.648Z,2.20
2018-01-29T14:03:32.845Z,2.67
2018-01-29T14:06:01.042Z,2.20
2018-01-29T14:08:29.239Z,2.30
2018-01-29T14:10:57.448Z,2.30
2018-01-29T14:13:25.639Z,2.17
2018-01-29T14:15:53.848Z,2.23
2018-01-29T14:18:22.048Z,2.10
2018-01-29T14:20:50.248Z,2.33
2018-01-29T14:23:18.441Z,2.23
2018-01-29T14:25:46.693Z,2.37
2018-01-29T14:28:14.835Z,2.30
2018-01-29T14:30:43.035Z,2.20
2018-01-29T14:33:11.232Z,2.20
2018-01-29T14:35:39.439Z,2.17
2018-01-29T14:38:06.867Z,2.47
2018-01-29T14:40:34.317Z,2.33
2018-01-29T14:43:02.506Z,2.10
2018-01-29T14:45:30.712Z,2.63
2018-01-29T14:47:58.907Z,2.70
2018-01-29T14:50:26.339Z,2.50
2018-01-29T14:52:53.762Z,1.90
2018-01-29T14:55:21.199Z,2.10
2018-01-29T14:57:48.636Z,2.10
2018-01-29T15:00:16.842Z,2.40
2018-01-29T15:02:45.090Z,1.93
2018-01-29T15:05:13.244Z,2.43
2018-01-29T15:07:40.680Z,1.77
2018-01-29T15:10:08.107Z,2.20
2018-01-29T15:12:35.547Z,2.37
2018-01-29T15:15:02.971Z,2.47
2018-01-29T15:17:30.404Z,1.90
2018-01-29T15:19:57.832Z,2.13
2018-01-29T15:22:25.272Z,2.13
2018-01-29T15:24:52.704Z,2.30
2018-01-29T15:27:20.146Z,1.90
2018-01-29T15:29:47.576Z,2.20
2018-01-29T15:32:15.023Z,2.57
2018-01-29T15:34:42.435Z,1.90
2018-01-29T15:37:09.875Z,1.47
2018-01-29T15:39:38.075Z,3.10
2018-01-29T15:42:06.277Z,2.90
2018-01-29T15:44:34.476Z,1.90
2018-01-29T15:47:02.683Z,1.80
2018-01-29T15:49:30.874Z,3.20
2018-01-29T15:51:59.080Z,3.13
2018-01-29T15:54:27.277Z,2.90
2018-01-29T15:56:55.478Z,3.57
2018-01-29T15:59:23.671Z,2.93
2018-01-29T16:01:51.118Z,2.50
2018-01-29T16:04:18.543Z,2.00
2018-01-29T16:06:46.746Z,2.10
2018-01-29T16:09:14.943Z,2.53
2018-01-29T16:11:42.375Z,2.77
2018-01-29T16:14:09.803Z,2.47
2018-01-29T16:16:38.004Z,2.80
2018-01-29T16:19:06.203Z,2.53
2018-01-29T16:21:34.402Z,2.63
2018-01-29T16:24:01.835Z,2.30
2018-01-29T16:26:29.264Z,2.07
2018-01-29T16:28:56.703Z,2.50
2018-01-29T16:31:24.140Z,3.03
2018-01-29T16:33:51.584Z,2.60
2018-01-29T16:36:19.013Z,3.30
2018-01-29T16:38:46.442Z,3.50
2018-01-29T16:41:13.905Z,7.33
2018-01-29T16:43:41.325Z,15.27
2018-01-29T16:46:08.760Z,8.50
2018-01-29T16:48:36.232Z,8.40
2018-01-29T16:51:03.655Z,10.47
2018-01-29T16:53:31.864Z,6.87
2018-01-29T16:56:00.055Z,4.93
2018-01-29T16:58:28.254Z,5.50
2018-01-29T17:00:56.480Z,4.33
2018-01-29T17:03:23.912Z,4.30
2018-01-29T17:05:51.334Z,3.50
2018-01-29T17:08:18.784Z,4.55
2018-01-29T17:10:46.220Z,7.57
2018-01-29T17:13:13.658Z,4.53
2018-01-29T17:15:41.862Z,4.18
2018-01-29T17:18:10.068Z,4.55
2018-01-29T17:20:37.507Z,3.90
2018-01-29T17:23:04.948Z,4.43
2018-01-29T17:25:32.387Z,3.60
2018-01-29T17:27:59.823Z,3.80
2018-01-29T17:30:27.273Z,4.07
2018-01-29T17:32:55.475Z,4.10
2018-01-29T17:35:22.967Z,3.70
2018-01-29T17:37:50.399Z,3.73
2018-01-29T17:40:17.913Z,4.20
2018-01-29T17:42:45.336Z,4.25
2018-01-29T17:45:13.528Z,3.77
2018-01-29T17:47:41.038Z,4.10
2018-01-29T17:50:08.520Z,3.85
2018-01-29T17:52:35.939Z,4.30
2018-01-29T17:55:03.372Z,4.57
2018-01-29T17:57:31.622Z,4.90
2018-01-29T17:59:59.844Z,4.25
2018-01-29T18:02:27.330Z,4.90
2018-01-29T18:04:54.752Z,5.80
2018-01-29T18:07:22.190Z,4.30
2018-01-29T18:09:49.631Z,4.40
2018-01-29T18:12:17.855Z,3.60
2018-01-29T18:14:45.293Z,4.65
2018-01-29T18:17:12.714Z,4.70
2018-01-29T18:19:40.197Z,3.95
2018-01-29T18:22:07.615Z,5.03
2018-01-29T18:24:35.061Z,5.57
2018-01-29T18:27:02.479Z,4.10
2018-01-29T18:29:29.965Z,6.32
2018-01-29T18:31:57.425Z,7.07
2018-01-29T18:34:24.855Z,3.50
2018-01-29T18:36:53.047Z,2.80
2018-01-29T18:39:21.294Z,3.45
2018-01-29T18:41:48.725Z,1.90
2018-01-29T18:44:16.934Z,2.10
2018-01-29T18:46:45.132Z,1.80
2018-01-29T18:49:12.566Z,2.28
2018-01-29T18:51:39.998Z,2.00
2018-01-29T18:54:08.255Z,1.50
2018-01-29T18:56:35.680Z,1.70
2018-01-29T18:59:03.935Z,2.00
2018-01-29T19:01:31.357Z,2.50
2018-01-29T19:03:59.615Z,2.00
2018-01-29T19:06:27.036Z,1.90
2018-01-29T19:08:55.259Z,1.80
2018-01-29T19:11:22.743Z,1.90
2018-01-29T19:13:50.215Z,2.20
2018-01-29T19:16:18.467Z,1.55
2018-01-29T19:18:45.887Z,1.70
2018-01-29T19:21:13.361Z,1.60
2018-01-29T19:23:41.597Z,1.50
2018-01-29T19:26:09.067Z,1.60
2018-01-29T19:28:36.547Z,3.10
2018-01-29T19:31:04.009Z,2.37
2018-01-29T19:33:32.238Z,2.10
2018-01-29T19:35:59.718Z,2.07
2018-01-29T19:38:27.199Z,2.30
2018-01-29T19:40:54.682Z,2.40
2018-01-29T19:43:22.090Z,2.10
2018-01-29T19:45:49.581Z,2.08
2018-01-29T19:48:17.044Z,2.60
2018-01-29T19:50:44.514Z,1.90
2018-01-29T19:53:11.995Z,1.85
2018-01-29T19:55:39.429Z,1.83
2018-01-29T19:58:07.679Z,1.98
2018-01-29T20:00:35.152Z,1.73
2018-01-29T20:03:02.631Z,2.20
2018-01-29T20:05:30.130Z,1.90
2018-01-29T20:07:57.540Z,1.90
2018-01-29T20:10:24.983Z,2.30
2018-01-29T20:12:53.190Z,1.80
2018-01-29T20:15:20.662Z,2.30
2018-01-29T20:17:48.134Z,2.30
2018-01-29T20:20:15.608Z,2.65
2018-01-29T20:22:43.086Z,3.37
2018-01-29T20:25:10.587Z,3.05
2018-01-29T20:27:38.010Z,3.28
2018-01-29T20:30:06.214Z,3.55
2018-01-29T20:32:34.465Z,3.87
2018-01-29T20:35:01.939Z,3.97
2018-01-29T20:37:29.410Z,4.28
2018-01-29T20:39:56.875Z,4.62
2018-01-29T20:42:25.127Z,5.50
2018-01-29T20:44:52.596Z,5.10
2018-01-29T20:47:20.079Z,4.80
2018-01-29T20:49:47.550Z,5.28
2018-01-29T20:52:15.035Z,4.57
2018-01-29T20:54:42.507Z,6.15
2018-01-29T20:57:09.995Z,4.78
2018-01-29T20:59:37.452Z,4.90
2018-01-29T21:02:05.652Z,4.80
2018-01-29T21:04:33.130Z,4.90
2018-01-29T21:07:01.450Z,4.70
2018-01-29T21:09:28.870Z,4.25
2018-01-29T21:11:56.357Z,4.30
2018-01-29T21:14:23.821Z,3.97
2018-01-29T21:16:51.295Z,4.15
2018-01-29T21:19:18.770Z,3.83
2018-01-29T21:21:46.234Z,3.80
2018-01-29T21:24:13.706Z,4.00
2018-01-29T21:26:41.900Z,6.55
2018-01-29T21:29:09.386Z,4.10
2018-01-29T21:31:37.621Z,3.30
2018-01-29T21:34:05.134Z,4.53
2018-01-29T21:36:32.612Z,2.90
2018-01-29T21:39:00.106Z,2.80
2018-01-29T21:41:27.530Z,2.55
2018-01-29T21:43:55.027Z,2.60
2018-01-29T21:46:22.494Z,2.30
2018-01-29T21:48:49.962Z,2.25
2018-01-29T21:51:17.426Z,2.10
2018-01-29T21:53:45.626Z,2.30
2018-01-29T21:56:13.867Z,1.95
2018-01-29T21:58:41.300Z,1.60
2018-01-29T22:01:08.787Z,1.87
2018-01-29T22:03:36.215Z,1.60
2018-01-29T22:06:03.690Z,1.80
2018-01-29T22:08:31.936Z,1.85
2018-01-29T22:10:59.391Z,2.20
2018-01-29T22:13:26.871Z,1.60
2018-01-29T22:15:54.361Z,1.80
2018-01-29T22:18:21.843Z,1.52
2018-01-29T22:20:49.272Z,2.40
2018-01-29T22:23:16.746Z,2.20
2018-01-29T22:25:44.252Z,2.10
2018-01-29T22:28:11.726Z,1.40
2018-01-29T22:30:39.912Z,1.60
2018-01-29T22:33:08.135Z,1.50
2018-01-29T22:35:35.608Z,1.60
2018-01-29T22:38:03.080Z,1.50
2018-01-29T22:40:30.567Z,1.65
2018-01-29T22:42:58.026Z,2.10
2018-01-29T22:45:25.459Z,1.67
2018-01-29T22:47:52.896Z,1.70
2018-01-29T22:50:20.332Z,1.90
2018-01-29T22:52:47.767Z,1.70
2018-01-29T22:55:15.241Z,1.80
2018-01-29T22:57:42.712Z,1.80
2018-01-29T23:00:10.949Z,1.50
2018-01-29T23:02:38.503Z,1.40
2018-01-29T23:05:05.939Z,1.45
2018-01-29T23:07:33.482Z,1.60
2018-01-29T23:10:00.915Z,1.60
2018-01-29T23:12:28.346Z,1.40
2018-01-29T23:14:55.812Z,1.40
2018-01-29T23:17:24.012Z,1.48
2018-01-29T23:19:51.461Z,1.50
2018-01-29T23:22:18.971Z,1.50
2018-01-29T23:24:46.430Z,1.20
2018-01-29T23:27:13.904Z,1.30
2018-01-29T23:29:41.343Z,1.40
2018-01-29T23:32:09.572Z,1.30
2018-01-29T23:34:37.012Z,1.30
2018-01-29T23:37:04.459Z,1.40
2018-01-29T23:39:32.684Z,1.30
2018-01-29T23:42:00.131Z,1.20
2018-01-29T23:44:27.575Z,1.15
2018-01-29T23:46:55.784Z,1.20
2018-01-29T23:49:23.277Z,1.17
2018-01-29T23:51:50.707Z,1.00
2018-01-29T23:54:18.151Z,1.20
2018-01-29T23:56:45.687Z,1.20
2018-01-29T23:59:13.118Z,1.20
